Time;durP1;ratioP1;P1;durP2;ratioP2;P2;SDS_P1;SDS_P2;PMS_P1;PMS_P2;Temp;Humidity;BMP_temperature;BMP_pressure;BME280_temperature;BME280_humidity;BME280_pressure;Samples;Min_cycle;Max_cycle;Signal;HPM_P1;HPM_P2
2023/03/23 00:01:10;;;;;;;2.60;2.00;;;15.60;99.90;;;;;;4951654;28;20031;-88
2023/03/23 00:03:36;;;;;;;4.50;2.53;;;15.60;99.90;;;;;;4951992;28;20129;-88
2023/03/23 00:06:04;;;;;;;2.85;2.30;;;15.60;99.90;;;;;;4951732;28;20474;-89
2023/03/23 00:08:31;;;;;;;4.40;2.28;;;15.60;99.90;;;;;;4951960;28;20043;-88
2023/03/23 00:10:57;;;;;;;1.92;1.70;;;15.50;99.90;;;;;;4951580;28;20024;-88
2023/03/23 00:13:27;;;;;;;2.45;1.92;;;15.60;99.90;;;;;;4952019;28;20034;-88
2023/03/23 00:15:53;;;;;;;2.35;1.75;;;15.60;99.90;;;;;;4951700;28;20082;-88
2023/03/23 00:18:21;;;;;;;4.03;1.92;;;15.60;99.90;;;;;;4951899;28;20486;-88
2023/03/23 00:20:48;;;;;;;2.00;1.80;;;15.50;99.90;;;;;;4951729;28;20027;-88
2023/03/23 00:23:18;;;;;;;2.85;1.80;;;15.50;99.90;;;;;;4951421;29;20034;-88
2023/03/23 00:25:48;;;;;;;2.67;1.80;;;15.60;99.90;;;;;;4951391;28;20066;-88
2023/03/23 00:28:16;;;;;;;2.28;1.80;;;15.70;99.90;;;;;;4951662;28;20032;-88
2023/03/23 00:30:42;;;;;;;2.33;1.80;;;15.70;99.90;;;;;;4951800;28;20496;-88
2023/03/23 00:33:12;;;;;;;3.05;2.00;;;15.80;99.90;;;;;;4951520;28;20058;-88
2023/03/23 00:35:38;;;;;;;2.30;1.58;;;15.70;99.90;;;;;;4951713;28;20485;-89
2023/03/23 00:38:04;;;;;;;1.65;1.50;;;15.70;99.90;;;;;;4951722;29;20022;-88
2023/03/23 00:40:30;;;;;;;1.80;1.70;;;15.70;99.90;;;;;;4951452;28;20031;-88
2023/03/23 00:42:56;;;;;;;1.60;1.50;;;15.70;99.90;;;;;;4951206;28;20031;-89
2023/03/23 00:45:23;;;;;;;3.17;1.60;;;15.60;99.90;;;;;;4951013;28;20051;-88
2023/03/23 00:47:50;;;;;;;4.32;1.90;;;15.60;99.90;;;;;;4951236;28;20042;-89
2023/03/23 00:50:17;;;;;;;2.05;1.80;;;15.60;99.90;;;;;;4951060;28;20460;-89
2023/03/23 00:52:43;;;;;;;3.35;1.80;;;15.60;99.90;;;;;;4951230;28;20375;-88
2023/03/23 00:55:09;;;;;;;4.18;2.03;;;15.50;99.90;;;;;;4950677;29;20038;-88
2023/03/23 00:57:35;;;;;;;3.28;1.88;;;15.60;99.90;;;;;;4951250;28;20027;-88
2023/03/23 01:00:03;;;;;;;2.25;1.60;;;15.50;99.90;;;;;;4950817;28;20123;-88
2023/03/23 01:02:29;;;;;;;2.33;1.70;;;15.50;99.90;;;;;;4950323;28;20046;-88
2023/03/23 01:04:54;;;;;;;4.35;1.70;;;15.50;99.90;;;;;;4950148;29;20071;-88
2023/03/23 01:07:22;;;;;;;3.30;1.85;;;15.50;99.90;;;;;;4951514;28;20019;-88
2023/03/23 01:09:48;;;;;;;3.75;1.73;;;15.50;99.90;;;;;;4951141;29;20043;-88
2023/03/23 01:12:14;;;;;;;2.63;1.90;;;15.50;99.90;;;;;;4951023;28;20042;-88
2023/03/23 01:14:41;;;;;;;3.75;1.77;;;15.50;99.90;;;;;;4950566;28;20118;-88
2023/03/23 01:17:07;;;;;;;3.22;1.70;;;15.50;99.90;;;;;;4951678;28;20020;-88
2023/03/23 01:19:32;;;;;;;2.22;1.58;;;15.50;99.90;;;;;;4950939;29;20042;-88
2023/03/23 01:21:58;;;;;;;3.60;1.67;;;15.50;99.90;;;;;;4951013;28;20027;-89
2023/03/23 01:24:24;;;;;;;2.97;1.52;;;15.50;99.90;;;;;;4951297;28;20038;-88
2023/03/23 01:26:50;;;;;;;1.92;1.52;;;15.50;99.90;;;;;;4950805;28;20049;-88
2023/03/23 01:29:15;;;;;;;1.98;1.70;;;15.40;99.90;;;;;;4949891;28;20514;-89
2023/03/23 01:31:42;;;;;;;2.65;1.88;;;15.40;99.90;;;;;;4950830;29;20028;-88
2023/03/23 01:34:10;;;;;;;2.78;1.77;;;15.50;99.90;;;;;;4950089;28;20045;-88
2023/03/23 01:36:36;;;;;;;2.78;1.70;;;15.50;99.90;;;;;;4951125;28;20518;-88
2023/03/23 01:39:04;;;;;;;3.00;1.70;;;15.50;99.90;;;;;;4950414;28;20501;-88
2023/03/23 01:41:31;;;;;;;2.88;1.90;;;15.50;99.90;;;;;;4950839;29;20027;-88
2023/03/23 01:44:03;;;;;;;2.13;1.73;;;15.50;99.90;;;;;;4950198;28;20027;-89
2023/03/23 01:46:32;;;;;;;2.65;2.00;;;15.50;99.90;;;;;;4950177;28;20106;-88
2023/03/23 01:49:06;;;;;;;3.10;1.90;;;15.30;99.90;;;;;;4949968;28;20058;-88
2023/03/23 01:51:36;;;;;;;3.78;2.08;;;15.30;99.90;;;;;;4942212;28;20035;-88
2023/03/23 01:54:05;;;;;;;2.58;1.70;;;15.30;99.90;;;;;;4947907;29;20501;-88
2023/03/23 01:56:45;;;;;;;3.63;1.70;;;15.30;99.90;;;;;;4949656;28;20039;-88
2023/03/23 01:59:12;;;;;;;1.58;1.48;;;15.30;99.90;;;;;;4950227;28;20031;-88
2023/03/23 02:01:44;;;;;;;3.08;1.42;;;15.30;99.90;;;;;;4950291;29;20065;-88
2023/03/23 02:04:13;;;;;;;3.40;1.58;;;15.30;99.90;;;;;;4949130;29;20031;-88
2023/03/23 02:06:39;;;;;;;3.28;1.88;;;15.30;99.90;;;;;;4950464;29;20066;-88
2023/03/23 02:09:07;;;;;;;2.03;1.58;;;15.20;99.90;;;;;;4950220;28;20046;-87
2023/03/23 02:11:33;;;;;;;1.98;1.55;;;15.20;99.90;;;;;;4949864;28;20035;-88
2023/03/23 02:14:00;;;;;;;3.20;1.75;;;15.20;99.90;;;;;;4950523;28;20200;-89
2023/03/23 02:16:38;;;;;;;2.38;1.70;;;15.20;99.90;;;;;;4949946;28;20078;-88
2023/03/23 02:19:06;;;;;;;1.98;1.73;;;15.20;99.90;;;;;;4950229;29;20039;-88
2023/03/23 02:22:12;;;;;;;3.20;2.00;;;15.10;99.90;;;;;;4950204;28;20078;-89
2023/03/23 02:25:23;;;;;;;3.17;1.70;;;15.00;99.90;;;;;;4949986;29;20038;-88
2023/03/23 02:28:26;;;;;;;3.45;2.10;;;15.00;99.90;;;;;;4950182;29;20520;-88
2023/03/23 02:31:20;;;;;;;1.90;1.75;;;15.00;99.90;;;;;;4949884;28;20065;-88
2023/03/23 02:34:14;;;;;;;2.13;1.77;;;14.90;99.90;;;;;;4950205;28;20516;-88
2023/03/23 02:36:48;;;;;;;3.90;1.85;;;14.90;99.90;;;;;;4949773;28;20034;-88
2023/03/23 02:39:47;;;;;;;2.35;1.80;;;14.90;99.90;;;;;;4950463;28;20468;-88
2023/03/23 02:42:20;;;;;;;2.97;2.05;;;14.90;99.90;;;;;;4967770;28;20075;-88
2023/03/23 02:44:47;;;;;;;2.47;1.90;;;15.00;99.90;;;;;;4950001;28;20034;-88
2023/03/23 02:47:23;;;;;;;2.25;1.60;;;15.00;99.90;;;;;;4951462;28;20027;-88
2023/03/23 02:49:53;;;;;;;2.38;1.65;;;14.90;99.90;;;;;;4953089;29;20036;-89
2023/03/23 02:52:24;;;;;;;4.28;1.98;;;14.90;99.90;;;;;;4937267;29;20033;-88
2023/03/23 02:54:51;;;;;;;2.30;2.10;;;14.80;99.90;;;;;;4952968;29;20027;-88
2023/03/23 02:57:17;;;;;;;2.90;2.10;;;14.70;99.90;;;;;;4953423;29;20034;-89
2023/03/23 02:59:43;;;;;;;2.83;2.03;;;14.60;99.90;;;;;;4953226;28;20024;-88
2023/03/23 03:02:14;;;;;;;2.47;1.88;;;14.60;99.90;;;;;;4952929;28;20490;-88
2023/03/23 03:04:43;;;;;;;2.70;1.88;;;14.60;99.90;;;;;;4952166;28;20035;-88
2023/03/23 03:07:35;;;;;;;2.60;2.20;;;14.60;99.90;;;;;;4952976;29;20031;-88
2023/03/23 03:10:14;;;;;;;2.97;2.10;;;14.70;99.90;;;;;;4952661;28;20076;-89
2023/03/23 03:12:50;;;;;;;3.13;1.90;;;14.60;99.90;;;;;;4953161;28;20302;-88
2023/03/23 03:15:43;;;;;;;3.10;2.20;;;14.70;99.90;;;;;;4947399;29;20552;-88
2023/03/23 03:18:38;;;;;;;4.03;2.08;;;14.70;99.90;;;;;;4952595;29;20031;-89
2023/03/23 03:21:08;;;;;;;2.00;1.77;;;14.80;99.90;;;;;;4963481;28;20516;-88
2023/03/23 03:23:36;;;;;;;2.20;1.83;;;14.70;99.90;;;;;;4952149;29;20031;-88
2023/03/23 03:26:04;;;;;;;2.10;1.90;;;14.70;99.90;;;;;;4952225;28;20043;-88
2023/03/23 03:28:32;;;;;;;2.63;2.00;;;14.70;99.90;;;;;;4951214;28;20437;-88
2023/03/23 03:31:01;;;;;;;3.15;2.00;;;14.70;99.90;;;;;;4952826;29;20035;-88
2023/03/23 03:33:30;;;;;;;3.33;2.38;;;14.60;99.90;;;;;;4952458;29;20474;-88
2023/03/23 03:35:59;;;;;;;4.22;2.28;;;14.50;99.90;;;;;;4952802;28;20023;-89
2023/03/23 03:38:26;;;;;;;4.10;2.25;;;14.50;99.90;;;;;;4952333;28;20111;-89
2023/03/23 03:40:53;;;;;;;3.47;2.20;;;14.40;99.90;;;;;;4952729;29;20493;-89
2023/03/23 03:43:18;;;;;;;2.42;2.20;;;14.30;99.90;;;;;;4952139;28;20169;-88
2023/03/23 03:45:44;;;;;;;3.72;2.42;;;14.30;99.90;;;;;;4951126;28;20525;-88
2023/03/23 03:48:11;;;;;;;4.43;2.50;;;14.30;99.90;;;;;;4952620;28;20027;-88
2023/03/23 03:50:37;;;;;;;3.63;2.33;;;14.40;99.90;;;;;;4952893;28;20169;-88
2023/03/23 03:53:02;;;;;;;2.60;2.40;;;14.40;99.90;;;;;;4951813;28;20102;-88
2023/03/23 03:55:29;;;;;;;3.38;2.30;;;14.40;99.90;;;;;;4952151;28;20114;-88
2023/03/23 03:57:55;;;;;;;3.95;2.10;;;14.40;99.90;;;;;;4951359;28;20032;-88
2023/03/23 04:00:22;;;;;;;4.78;2.38;;;14.40;99.90;;;;;;4951767;28;20110;-88
2023/03/23 04:02:54;;;;;;;4.00;2.30;;;14.40;99.90;;;;;;4952163;28;20023;-89
2023/03/23 04:05:21;;;;;;;2.67;2.10;;;14.30;99.90;;;;;;4952065;28;20058;-88
2023/03/23 04:07:49;;;;;;;4.38;2.42;;;14.30;99.90;;;;;;4951700;28;20110;-88
2023/03/23 04:10:15;;;;;;;3.75;2.20;;;14.30;99.90;;;;;;4951208;28;20042;-88
2023/03/23 04:12:41;;;;;;;2.85;2.10;;;14.20;99.90;;;;;;4952001;28;20035;-88
2023/03/23 04:15:07;;;;;;;3.67;2.00;;;14.20;99.90;;;;;;4951707;28;20520;-89
2023/03/23 04:17:34;;;;;;;2.40;1.92;;;14.20;99.90;;;;;;4952130;28;20020;-88
2023/03/23 04:20:00;;;;;;;3.78;2.20;;;14.10;99.90;;;;;;4951588;29;20055;-88
2023/03/23 04:22:32;;;;;;;3.97;2.35;;;14.10;99.90;;;;;;4951930;28;20057;-88
2023/03/23 04:24:59;;;;;;;2.40;2.20;;;14.20;99.90;;;;;;4951830;28;20567;-88
2023/03/23 04:27:27;;;;;;;1.95;1.83;;;14.20;99.90;;;;;;4951893;28;20031;-88
2023/03/23 04:29:56;;;;;;;2.40;1.88;;;14.20;99.90;;;;;;4951678;28;20509;-88
2023/03/23 04:32:22;;;;;;;2.85;1.98;;;14.20;99.90;;;;;;4952081;28;20106;-88
2023/03/23 04:34:48;;;;;;;2.47;1.85;;;14.20;99.90;;;;;;4951417;28;20540;-88
2023/03/23 04:37:14;;;;;;;3.63;2.10;;;14.20;99.90;;;;;;4952080;29;20028;-88
2023/03/23 04:39:41;;;;;;;3.13;2.20;;;14.20;99.90;;;;;;4951619;28;20100;-88
2023/03/23 04:42:07;;;;;;;2.20;1.77;;;14.10;99.90;;;;;;4951328;29;20035;-89
2023/03/23 04:44:32;;;;;;;2.90;2.22;;;14.10;99.90;;;;;;4947174;29;20400;-88
2023/03/23 04:47:01;;;;;;;3.53;2.40;;;14.10;99.90;;;;;;4951660;28;20031;-88
2023/03/23 04:49:26;;;;;;;3.08;2.53;;;14.00;99.90;;;;;;4950887;29;20054;-88
2023/03/23 04:51:52;;;;;;;3.10;2.20;;;14.10;99.90;;;;;;4951629;28;20031;-88
2023/03/23 04:54:18;;;;;;;4.47;2.47;;;14.10;99.90;;;;;;4951294;28;20039;-89
2023/03/23 04:56:44;;;;;;;3.63;2.30;;;14.10;99.90;;;;;;4951194;28;20496;-88
2023/03/23 04:59:09;;;;;;;3.45;2.20;;;14.10;99.90;;;;;;4951090;28;20035;-89
2023/03/23 05:01:37;;;;;;;3.88;2.05;;;14.00;99.90;;;;;;4949932;28;20023;-88
2023/03/23 05:04:03;;;;;;;3.17;2.40;;;14.00;99.90;;;;;;4951506;28;20085;-88
2023/03/23 05:06:29;;;;;;;3.33;2.20;;;14.00;99.90;;;;;;4950779;28;20426;-88
2023/03/23 05:08:55;;;;;;;3.38;2.42;;;14.10;99.90;;;;;;4950031;28;20490;-88
2023/03/23 05:11:21;;;;;;;3.42;2.10;;;14.10;99.90;;;;;;4950069;29;20394;-89
2023/03/23 05:13:46;;;;;;;4.03;2.22;;;14.10;99.90;;;;;;4951099;29;20025;-89
2023/03/23 05:16:12;;;;;;;3.85;2.30;;;14.10;99.90;;;;;;4951604;29;20080;-88
2023/03/23 05:18:38;;;;;;;3.22;2.60;;;14.20;99.90;;;;;;4951076;28;20038;-88
2023/03/23 05:21:04;;;;;;;3.55;2.22;;;14.20;99.90;;;;;;4950669;28;20035;-88
2023/03/23 05:23:33;;;;;;;4.65;2.40;;;14.10;99.90;;;;;;4949516;28;20397;-88
2023/03/23 05:26:02;;;;;;;4.15;2.20;;;14.10;99.90;;;;;;4950733;28;20520;-88
2023/03/23 05:28:30;;;;;;;3.90;2.50;;;14.10;99.90;;;;;;4949566;28;20066;-88
2023/03/23 05:30:56;;;;;;;2.83;2.53;;;14.10;99.90;;;;;;4950985;28;20569;-88
2023/03/23 05:33:22;;;;;;;3.55;2.70;;;14.10;99.90;;;;;;4950786;28;20169;-88
2023/03/23 05:35:48;;;;;;;4.35;2.70;;;14.10;99.90;;;;;;4951109;28;20117;-88
2023/03/23 05:38:16;;;;;;;5.97;2.60;;;14.10;99.90;;;;;;4950556;28;20031;-88
2023/03/23 05:40:42;;;;;;;3.95;2.78;;;14.10;99.90;;;;;;4950607;28;20039;-88
2023/03/23 05:43:08;;;;;;;3.63;2.58;;;14.10;99.90;;;;;;4950858;28;20031;-88
2023/03/23 05:45:34;;;;;;;3.05;2.67;;;14.10;99.90;;;;;;4950379;29;20032;-88
2023/03/23 05:48:00;;;;;;;6.70;2.83;;;14.00;99.90;;;;;;4950669;28;20028;-88
2023/03/23 05:50:27;;;;;;;4.72;2.40;;;14.00;99.90;;;;;;4949973;28;20051;-88
2023/03/23 05:52:54;;;;;;;3.55;2.47;;;13.90;99.90;;;;;;4950020;28;20034;-88
2023/03/23 05:55:19;;;;;;;2.88;2.45;;;13.90;99.90;;;;;;4950411;28;20031;-88
2023/03/23 05:57:45;;;;;;;4.38;2.60;;;13.90;99.90;;;;;;4950401;28;20097;-88
2023/03/23 06:00:14;;;;;;;3.53;2.90;;;13.90;99.90;;;;;;4950589;29;20038;-89
2023/03/23 06:02:43;;;;;;;4.00;2.80;;;13.90;99.90;;;;;;4950771;29;20058;-88
2023/03/23 06:05:10;;;;;;;3.72;2.60;;;13.90;99.90;;;;;;4950510;29;20039;-89
2023/03/23 06:07:37;;;;;;;5.15;2.65;;;13.90;99.90;;;;;;4950031;29;20035;-88
2023/03/23 06:10:06;;;;;;;5.13;3.10;;;13.90;99.90;;;;;;4950211;28;20047;-88
2023/03/23 06:12:32;;;;;;;4.45;2.85;;;13.90;99.90;;;;;;4950162;28;20114;-88
2023/03/23 06:14:58;;;;;;;3.35;2.65;;;13.90;99.90;;;;;;4950707;29;20106;-88
2023/03/23 06:17:24;;;;;;;4.63;2.50;;;14.00;99.90;;;;;;4950143;29;20054;-88
2023/03/23 06:19:50;;;;;;;3.55;2.50;;;14.00;99.90;;;;;;4950523;28;20039;-88
2023/03/23 06:22:16;;;;;;;2.97;2.47;;;14.10;99.90;;;;;;4953045;28;20031;-87
2023/03/23 06:24:43;;;;;;;4.70;2.80;;;14.00;99.90;;;;;;4953765;28;20077;-88
2023/03/23 06:27:10;;;;;;;3.50;2.88;;;14.00;99.90;;;;;;4953572;29;20098;-89
2023/03/23 06:29:36;;;;;;;3.60;2.75;;;14.00;99.90;;;;;;4953643;28;20177;-88
2023/03/23 06:32:04;;;;;;;4.07;2.60;;;14.00;99.90;;;;;;4953068;28;20027;-88
2023/03/23 06:34:32;;;;;;;3.72;3.15;;;14.10;99.90;;;;;;4953017;28;20490;-88
2023/03/23 06:36:58;;;;;;;3.55;2.78;;;14.10;99.90;;;;;;4953299;29;20027;-88
2023/03/23 06:39:24;;;;;;;3.35;2.83;;;14.30;99.90;;;;;;4953420;28;20035;-88
2023/03/23 06:41:50;;;;;;;5.93;2.72;;;14.20;99.90;;;;;;4952759;28;20078;-88
2023/03/23 06:44:16;;;;;;;4.60;2.50;;;14.20;99.90;;;;;;4953173;28;20106;-88
2023/03/23 06:46:41;;;;;;;3.03;2.42;;;14.30;99.90;;;;;;4953571;28;20378;-88
2023/03/23 06:49:08;;;;;;;3.67;2.65;;;14.40;99.90;;;;;;4952528;28;20426;-88
2023/03/23 06:51:34;;;;;;;4.18;2.53;;;14.50;99.90;;;;;;4952649;29;20041;-88
2023/03/23 06:54:00;;;;;;;4.20;2.70;;;14.50;99.90;;;;;;4952695;28;20102;-88
2023/03/23 06:56:25;;;;;;;3.88;2.53;;;14.50;99.90;;;;;;4953296;29;20027;-88
2023/03/23 06:58:51;;;;;;;5.82;3.10;;;14.50;99.90;;;;;;4953042;28;20043;-89
2023/03/23 07:01:17;;;;;;;4.45;2.95;;;14.40;99.90;;;;;;4953049;28;20035;-88
2023/03/23 07:03:43;;;;;;;5.07;3.17;;;14.30;99.90;;;;;;4953278;28;20085;-88
2023/03/23 07:06:09;;;;;;;4.20;2.90;;;14.20;99.90;;;;;;4952740;29;20030;-88
2023/03/23 07:08:36;;;;;;;5.50;2.95;;;14.10;99.90;;;;;;4953112;29;20042;-88
2023/03/23 07:11:02;;;;;;;3.97;3.00;;;14.10;99.90;;;;;;4953583;28;20486;-88
2023/03/23 07:13:28;;;;;;;8.80;3.05;;;14.00;99.90;;;;;;4953056;28;20515;-88
2023/03/23 07:15:54;;;;;;;3.10;2.75;;;14.00;99.90;;;;;;4952429;28;20031;-88
2023/03/23 07:18:20;;;;;;;6.80;3.33;;;13.90;99.90;;;;;;4952809;28;20034;-88
2023/03/23 07:20:53;;;;;;;4.05;3.10;;;14.00;99.90;;;;;;4953007;28;20047;-88
2023/03/23 07:23:19;;;;;;;4.70;3.50;;;14.10;99.90;;;;;;4952683;28;20397;-88
2023/03/23 07:25:46;;;;;;;4.88;3.28;;;14.10;99.90;;;;;;4952682;28;20066;-88
2023/03/23 07:28:12;;;;;;;5.18;3.40;;;14.00;99.90;;;;;;4952956;28;20019;-88
2023/03/23 07:30:38;;;;;;;4.90;3.35;;;14.10;99.90;;;;;;4952414;28;20043;-88
2023/03/23 07:33:08;;;;;;;6.18;3.30;;;13.90;99.90;;;;;;4952521;29;20094;-88
2023/03/23 07:35:34;;;;;;;7.00;3.42;;;14.00;99.90;;;;;;4952046;28;20146;-88
2023/03/23 07:37:59;;;;;;;6.72;3.63;;;14.00;99.90;;;;;;4952695;28;20481;-89
2023/03/23 07:40:26;;;;;;;3.78;3.35;;;14.00;99.90;;;;;;4952464;28;20062;-88
2023/03/23 07:42:54;;;;;;;4.05;3.58;;;14.00;99.90;;;;;;4949350;28;20032;-89
2023/03/23 07:45:21;;;;;;;7.22;4.05;;;14.00;99.90;;;;;;4947965;29;20024;-88
2023/03/23 07:47:47;;;;;;;6.53;3.70;;;14.10;99.90;;;;;;4952463;28;20470;-88
2023/03/23 07:50:13;;;;;;;4.43;3.28;;;14.20;99.90;;;;;;4951764;28;20114;-91
2023/03/23 07:52:40;;;;;;;5.68;3.40;;;14.20;99.90;;;;;;4956533;28;20137;-88
2023/03/23 07:55:08;;;;;;;7.00;3.85;;;14.20;99.90;;;;;;4952146;28;20489;-93
2023/03/23 07:57:34;;;;;;;4.20;3.58;;;14.20;99.90;;;;;;4952402;28;20051;-87
2023/03/23 08:00:00;;;;;;;5.60;3.97;;;14.30;99.90;;;;;;4952193;29;20046;-87
2023/03/23 08:02:31;;;;;;;4.97;3.70;;;14.30;99.90;;;;;;4952828;28;20027;-89
2023/03/23 08:05:00;;;;;;;5.20;3.90;;;14.40;99.90;;;;;;4952208;29;20476;-90
2023/03/23 08:07:26;;;;;;;3.70;3.40;;;14.50;99.90;;;;;;4952403;28;20127;-89
2023/03/23 08:09:52;;;;;;;4.93;3.50;;;14.40;99.90;;;;;;4952201;29;20564;-90
2023/03/23 08:12:17;;;;;;;6.28;3.80;;;14.40;99.90;;;;;;4952267;28;20102;-89
2023/03/23 08:14:43;;;;;;;5.03;3.67;;;14.40;99.90;;;;;;4952429;28;20062;-89
2023/03/23 08:17:09;;;;;;;4.82;3.50;;;14.40;99.90;;;;;;4952318;29;20032;-89
2023/03/23 08:19:36;;;;;;;4.13;3.72;;;14.30;99.90;;;;;;4952169;29;20028;-90
2023/03/23 08:22:03;;;;;;;4.32;3.85;;;14.30;99.90;;;;;;4952463;28;20129;-90
2023/03/23 08:24:30;;;;;;;4.10;3.47;;;14.20;99.90;;;;;;4951695;29;20088;-90
2023/03/23 08:26:56;;;;;;;4.78;3.88;;;14.20;99.90;;;;;;4952159;28;20055;-90
2023/03/23 08:29:22;;;;;;;6.32;4.60;;;14.20;99.90;;;;;;4951696;28;20051;-90
2023/03/23 08:31:47;;;;;;;4.63;3.97;;;14.20;99.90;;;;;;4952249;28;20035;-89
2023/03/23 08:34:15;;;;;;;6.68;4.18;;;14.20;99.90;;;;;;4952260;28;20119;-89
2023/03/23 08:36:43;;;;;;;6.22;3.90;;;14.30;99.90;;;;;;4952461;28;20389;-90
2023/03/23 08:39:09;;;;;;;4.78;3.85;;;14.40;99.90;;;;;;4952590;28;20047;-89
2023/03/23 08:41:34;;;;;;;5.45;3.90;;;14.50;99.90;;;;;;4952149;28;20086;-89
2023/03/23 08:44:01;;;;;;;5.25;4.30;;;14.50;99.90;;;;;;4951747;28;20430;-89
2023/03/23 08:46:27;;;;;;;5.00;4.18;;;14.60;99.90;;;;;;4952107;28;20031;-89
2023/03/23 08:48:54;;;;;;;4.63;3.67;;;14.70;99.90;;;;;;4952152;28;20114;-90
2023/03/23 08:51:19;;;;;;;4.90;4.40;;;14.60;99.90;;;;;;4952145;28;20035;-89
2023/03/23 08:53:45;;;;;;;4.25;3.85;;;14.70;99.90;;;;;;4951884;28;20031;-90
2023/03/23 08:56:12;;;;;;;4.82;4.35;;;14.70;99.90;;;;;;4952321;28;20077;-89
2023/03/23 08:58:39;;;;;;;5.20;4.60;;;14.80;99.90;;;;;;4951854;28;20081;-90
2023/03/23 09:01:06;;;;;;;5.72;4.32;;;14.70;99.90;;;;;;4952196;28;20019;-90
2023/03/23 09:03:34;;;;;;;6.47;4.63;;;14.80;99.90;;;;;;4951870;28;20065;-89
2023/03/23 09:06:02;;;;;;;5.97;4.78;;;14.80;99.90;;;;;;4951789;28;20028;-89
2023/03/23 09:08:29;;;;;;;5.93;5.20;;;14.70;99.90;;;;;;4951778;28;20034;-89
2023/03/23 09:11:03;;;;;;;6.53;5.20;;;14.70;99.90;;;;;;4951716;28;20038;-88
2023/03/23 09:13:29;;;;;;;7.22;5.28;;;14.70;99.90;;;;;;4951528;28;20076;-89
2023/03/23 09:15:55;;;;;;;8.02;5.80;;;14.80;99.90;;;;;;4951612;28;20493;-90
2023/03/23 09:18:21;;;;;;;5.97;4.72;;;14.90;99.90;;;;;;4966411;28;20027;-90
2023/03/23 09:20:49;;;;;;;7.00;5.60;;;15.00;99.90;;;;;;4952155;28;20027;-90
2023/03/23 09:23:15;;;;;;;6.72;5.68;;;14.90;99.90;;;;;;4951623;28;20102;-90
2023/03/23 09:25:41;;;;;;;7.60;5.75;;;15.00;99.90;;;;;;4946472;28;20587;-90
2023/03/23 09:28:07;;;;;;;8.80;5.95;;;14.90;99.90;;;;;;4932151;29;20059;-90
2023/03/23 09:30:36;;;;;;;8.07;6.60;;;14.90;99.90;;;;;;4932550;29;20118;-90
2023/03/23 09:33:03;;;;;;;11.85;7.22;;;14.90;99.90;;;;;;4932175;29;20031;-90
2023/03/23 09:35:31;;;;;;;10.02;7.22;;;14.90;99.90;;;;;;4932281;29;20043;-89
2023/03/23 09:38:00;;;;;;;8.50;6.85;;;15.00;99.90;;;;;;4932349;29;20024;-89
2023/03/23 09:40:48;;;;;;;8.68;7.72;;;15.10;99.90;;;;;;4931748;29;20106;-89
2023/03/23 09:43:29;;;;;;;10.30;8.30;;;15.20;99.90;;;;;;4932110;29;20157;-89
2023/03/23 09:46:07;;;;;;;9.65;7.60;;;15.20;99.90;;;;;;4945350;29;20031;-89
2023/03/23 09:48:40;;;;;;;8.93;7.20;;;15.30;99.90;;;;;;4951725;28;20397;-90
2023/03/23 09:51:27;;;;;;;11.68;8.10;;;15.30;99.90;;;;;;4951736;28;20050;-89
2023/03/23 09:53:58;;;;;;;9.57;7.88;;;15.50;99.90;;;;;;4951256;28;20034;-89
2023/03/23 09:56:32;;;;;;;9.63;7.90;;;15.60;99.90;;;;;;4953169;28;20038;-90
2023/03/23 09:59:20;;;;;;;9.50;7.88;;;15.70;99.90;;;;;;4954923;28;20050;-90
2023/03/23 10:01:53;;;;;;;10.02;7.40;;;15.80;99.90;;;;;;4954813;28;20525;-89
2023/03/23 10:04:46;;;;;;;8.65;7.60;;;15.80;99.90;;;;;;4954452;28;20073;-90
2023/03/23 10:07:13;;;;;;;8.93;7.30;;;16.10;99.90;;;;;;4969286;28;20032;-90
2023/03/23 10:09:41;;;;;;;9.20;7.50;;;16.40;99.90;;;;;;4954582;28;20046;-89
2023/03/23 10:12:36;;;;;;;9.35;7.43;;;16.60;99.90;;;;;;4969368;28;20031;-90
2023/03/23 10:15:16;;;;;;;11.23;8.02;;;16.80;99.90;;;;;;4951945;29;20387;-89
2023/03/23 10:17:55;;;;;;;13.77;7.90;;;17.40;99.90;;;;;;4952026;29;20093;-89
2023/03/23 10:20:36;;;;;;;9.35;7.82;;;17.90;99.90;;;;;;4952037;29;20089;-90
2023/03/23 10:23:20;;;;;;;8.07;7.13;;;17.90;99.90;;;;;;4952147;29;20055;-90
2023/03/23 10:26:08;;;;;;;10.00;7.63;;;18.60;99.90;;;;;;4951645;29;20086;-89
2023/03/23 10:28:38;;;;;;;8.48;7.22;;;17.90;99.90;;;;;;4952167;29;20031;-89
2023/03/23 10:31:08;;;;;;;9.27;7.15;;;17.90;99.90;;;;;;4951930;29;20063;-89
2023/03/23 10:33:42;;;;;;;9.57;7.53;;;18.00;99.90;;;;;;4951635;29;20458;-89
2023/03/23 10:36:30;;;;;;;8.18;6.75;;;18.40;99.90;;;;;;4951958;29;20047;-89
2023/03/23 10:39:03;;;;;;;8.35;7.53;;;18.40;99.90;;;;;;4951603;29;20541;-89
2023/03/23 10:41:30;;;;;;;8.20;6.93;;;18.70;99.90;;;;;;4952150;29;20237;-89
2023/03/23 10:43:56;;;;;;;7.65;6.55;;;18.00;99.90;;;;;;4951715;29;20032;-90
2023/03/23 10:46:46;;;;;;;7.68;6.70;;;17.60;99.90;;;;;;4951879;29;20063;-89
2023/03/23 10:49:16;;;;;;;5.90;5.00;;;17.40;99.90;;;;;;4951647;29;20043;-90
2023/03/23 10:51:46;;;;;;;9.60;6.22;;;17.00;99.90;;;;;;4943487;29;20398;-89
2023/03/23 10:54:12;;;;;;;11.07;6.20;;;16.80;99.90;;;;;;4934318;29;20054;-90
2023/03/23 10:56:40;;;;;;;7.20;6.28;;;16.70;99.90;;;;;;4934821;28;20032;-90
2023/03/23 10:59:21;;;;;;;6.53;5.90;;;16.50;99.90;;;;;;4934902;29;20043;-89
2023/03/23 11:01:51;;;;;;;9.02;6.88;;;16.40;99.90;;;;;;4934319;29;20429;-90
2023/03/23 11:04:18;;;;;;;8.30;7.10;;;16.20;99.90;;;;;;4934744;29;20042;-90
2023/03/23 11:06:48;;;;;;;7.50;6.75;;;16.20;99.90;;;;;;4933822;29;20024;-89
2023/03/23 11:09:17;;;;;;;10.40;7.10;;;15.90;99.90;;;;;;4934006;29;20467;-90
2023/03/23 11:12:02;;;;;;;10.25;7.25;;;15.90;99.90;;;;;;4934628;29;20034;-90
2023/03/23 11:14:32;;;;;;;11.00;8.23;;;15.00;99.90;;;;;;4934282;29;20387;-89
2023/03/23 11:17:03;;;;;;;9.10;8.10;;;15.20;99.90;;;;;;4934410;29;20032;-89
2023/03/23 11:19:32;;;;;;;8.93;8.02;;;15.40;99.90;;;;;;4934338;29;20040;-90
2023/03/23 11:22:06;;;;;;;12.10;8.43;;;15.70;99.90;;;;;;4932796;29;20122;-90
2023/03/23 11:24:45;;;;;;;10.05;8.18;;;16.00;99.90;;;;;;4934198;28;20086;-89
2023/03/23 11:27:11;;;;;;;11.52;8.35;;;16.00;99.90;;;;;;4934293;29;20058;-89
2023/03/23 11:30:09;;;;;;;8.93;7.60;;;16.30;99.90;;;;;;4934044;29;20516;-90
2023/03/23 11:32:36;;;;;;;9.05;7.47;;;16.50;99.90;;;;;;4934632;28;20046;-90
2023/03/23 11:35:05;;;;;;;11.57;8.07;;;16.80;99.90;;;;;;4934048;29;20498;-89
2023/03/23 11:37:44;;;;;;;9.48;7.30;;;16.90;99.90;;;;;;4933707;29;20106;-90
2023/03/23 11:40:15;;;;;;;9.00;7.78;;;17.20;99.90;;;;;;4934141;29;20064;-89
2023/03/23 11:42:50;;;;;;;9.55;7.80;;;17.50;99.90;;;;;;4933762;29;20103;-89
2023/03/23 11:45:22;;;;;;;8.80;7.75;;;17.60;99.90;;;;;;4942201;29;20424;-89
2023/03/23 11:48:09;;;;;;;9.52;7.70;;;17.50;99.90;;;;;;4953049;28;20461;-90
2023/03/23 11:50:43;;;;;;;9.23;7.22;;;17.50;99.90;;;;;;4952998;28;20037;-90
2023/03/23 11:53:24;;;;;;;9.07;6.80;;;17.40;99.90;;;;;;4953030;28;20061;-90
2023/03/23 11:55:50;;;;;;;9.45;7.28;;;17.40;99.90;;;;;;4953101;28;20161;-90
2023/03/23 11:58:18;;;;;;;9.38;7.50;;;17.50;99.90;;;;;;4952754;28;20082;-90
2023/03/23 12:00:58;;;;;;;9.32;7.63;;;17.30;99.90;;;;;;4952883;28;20027;-90
2023/03/23 12:04:09;;;;;;;7.80;6.90;;;17.30;99.90;;;;;;4952869;28;20026;-89
2023/03/23 12:06:55;;;;;;;10.95;7.10;;;17.50;99.90;;;;;;4950100;29;20094;-89
2023/03/23 12:09:51;;;;;;;7.75;6.95;;;17.50;99.90;;;;;;4950861;29;20039;-90
2023/03/23 12:12:51;;;;;;;9.48;6.85;;;17.60;99.90;;;;;;4950787;29;20494;-90
2023/03/23 12:15:30;;;;;;;8.70;7.80;;;17.40;99.90;;;;;;4950639;29;20528;-90
2023/03/23 12:18:10;;;;;;;7.43;6.68;;;17.50;99.90;;;;;;4950294;28;20070;-90
2023/03/23 12:20:53;;;;;;;8.52;7.30;;;17.50;99.90;;;;;;4950149;29;20398;-89
2023/03/23 12:23:45;;;;;;;8.55;7.22;;;17.30;99.90;;;;;;4950209;29;20039;-90
2023/03/23 12:27:05;;;;;;;10.55;7.63;;;17.50;99.90;;;;;;4950297;29;20055;-90
2023/03/23 12:29:36;;;;;;;8.23;7.18;;;17.40;99.90;;;;;;4930987;29;20549;-90
2023/03/23 12:32:20;;;;;;;11.98;8.02;;;17.60;99.90;;;;;;4930879;28;20074;-90
2023/03/23 12:35:12;;;;;;;8.85;7.35;;;17.40;99.90;;;;;;4931221;29;20036;-90
2023/03/23 12:37:46;;;;;;;7.85;7.05;;;17.30;99.90;;;;;;4928073;29;20070;-90
2023/03/23 12:40:29;;;;;;;9.95;8.32;;;17.30;99.90;;;;;;4930872;29;20074;-90
2023/03/23 12:43:10;;;;;;;9.75;7.90;;;17.10;99.90;;;;;;4925297;29;20029;-89
2023/03/23 12:46:06;;;;;;;12.63;8.00;;;16.90;99.90;;;;;;4911852;29;20042;-89
2023/03/23 12:48:52;;;;;;;9.95;8.77;;;16.90;99.90;;;;;;4912001;29;20036;-90
2023/03/23 12:51:29;;;;;;;12.13;8.13;;;16.90;99.90;;;;;;4912134;29;20048;-90
2023/03/23 12:54:11;;;;;;;10.55;9.32;;;16.80;99.90;;;;;;4911668;29;20044;-90
2023/03/23 12:56:56;;;;;;;10.68;9.50;;;16.80;99.90;;;;;;4912954;29;20067;-90
2023/03/23 12:59:22;;;;;;;12.82;9.55;;;16.60;99.90;;;;;;4911701;29;20427;-89
2023/03/23 13:02:05;;;;;;;11.95;9.82;;;16.40;99.90;;;;;;4911788;29;20035;-90
2023/03/23 13:04:38;;;;;;;13.05;10.13;;;16.40;99.90;;;;;;4927642;29;20047;-90